createdAt,value
2023-05-16T00:04:26.445Z,73.00
2023-05-16T00:06:56.587Z,72.57
2023-05-16T00:09:26.151Z,73.93
2023-05-16T00:11:55.873Z,75.82
2023-05-16T00:14:27.803Z,71.22
2023-05-16T00:17:00.152Z,76.55
2023-05-16T00:19:31.621Z,74.15
2023-05-16T00:22:01.574Z,59.78
2023-05-16T00:24:31.190Z,65.40
2023-05-16T00:27:00.755Z,64.57
2023-05-16T00:29:30.372Z,61.05
2023-05-16T00:32:00.454Z,63.08
2023-05-16T00:34:30.160Z,56.97
2023-05-16T00:36:59.901Z,61.38
2023-05-16T00:39:29.528Z,67.55
2023-05-16T00:41:59.348Z,60.83
2023-05-16T00:44:29.003Z,61.10
2023-05-16T00:46:59.071Z,70.78
2023-05-16T00:49:29.105Z,59.05
2023-05-16T00:51:59.476Z,65.70
2023-05-16T00:54:30.860Z,62.85
2023-05-16T00:57:00.889Z,67.40
2023-05-16T00:59:30.564Z,57.10
2023-05-16T01:02:00.314Z,75.40
2023-05-16T01:04:31.014Z,75.43
2023-05-16T01:07:00.783Z,79.95
2023-05-16T01:09:30.618Z,82.68
2023-05-16T01:12:11.174Z,85.10
2023-05-16T01:14:56.401Z,83.68
2023-05-16T01:17:44.331Z,75.35
2023-05-16T01:20:17.283Z,79.70
2023-05-16T01:22:50.031Z,82.57
2023-05-16T01:25:19.814Z,101.82
2023-05-16T01:27:49.746Z,83.18
2023-05-16T01:30:20.589Z,83.20
2023-05-16T01:32:50.297Z,95.80
2023-05-16T01:35:20.477Z,87.40
2023-05-16T01:37:59.716Z,78.40
2023-05-16T01:40:48.971Z,82.05
2023-05-16T01:43:21.507Z,75.00
2023-05-16T01:45:54.269Z,77.10
2023-05-16T01:48:34.072Z,79.00
2023-05-16T01:51:04.952Z,90.05
2023-05-16T01:53:42.521Z,73.40
2023-05-16T01:56:14.396Z,68.05
2023-05-16T01:58:44.516Z,87.90
2023-05-16T02:01:15.896Z,83.75
2023-05-16T02:03:45.577Z,86.10
2023-05-16T02:06:15.384Z,104.55
2023-05-16T02:08:46.210Z,105.65
2023-05-16T02:11:16.287Z,80.43
2023-05-16T02:13:46.236Z,72.07
2023-05-16T02:18:46.733Z,80.13
2023-05-16T02:21:16.408Z,80.40
2023-05-16T02:23:54.637Z,80.25
2023-05-16T02:26:27.592Z,84.03
2023-05-16T02:29:00.474Z,80.05
2023-05-16T02:31:30.943Z,79.60
2023-05-16T02:34:01.971Z,83.63
2023-05-16T02:36:31.640Z,90.15
2023-05-16T02:39:01.662Z,94.88
2023-05-16T02:41:42.496Z,89.15
2023-05-16T02:44:12.564Z,85.07
2023-05-16T02:46:42.297Z,95.18
2023-05-16T02:51:41.061Z,89.72
2023-05-16T02:54:11.580Z,93.03
2023-05-16T02:56:44.089Z,88.82
2023-05-16T02:59:14.892Z,86.07
2023-05-16T03:01:44.614Z,90.03
2023-05-16T03:04:14.529Z,97.28
2023-05-16T03:06:44.338Z,82.22
2023-05-16T03:09:14.120Z,81.07
2023-05-16T03:11:43.979Z,79.68
2023-05-16T03:19:15.924Z,87.18
2023-05-16T03:21:45.998Z,82.50
2023-05-16T03:24:15.846Z,87.10
2023-05-16T03:26:45.628Z,79.93
2023-05-16T03:31:44.532Z,89.33
2023-05-16T03:34:14.240Z,77.53
2023-05-16T03:36:44.372Z,71.18
2023-05-16T03:39:14.157Z,70.78
2023-05-16T03:44:12.875Z,57.47
2023-05-16T03:46:42.598Z,62.50
2023-05-16T03:51:41.377Z,63.60
2023-05-16T03:56:40.090Z,49.80
2023-05-16T03:59:09.918Z,56.65
2023-05-16T04:04:08.827Z,76.60
2023-05-16T04:11:38.227Z,63.25
2023-05-16T04:14:08.146Z,73.88
2023-05-16T04:16:37.989Z,68.40
2023-05-16T04:19:07.774Z,79.15
2023-05-16T14:10:37.009Z,90.97
2023-05-16T14:23:04.802Z,104.13
2023-05-16T14:28:03.612Z,102.78
2023-05-16T14:30:33.520Z,101.53
2023-05-16T14:35:34.704Z,95.75
2023-05-16T14:38:04.469Z,92.80
2023-05-16T14:40:34.110Z,106.18
2023-05-16T14:43:06.051Z,100.43
2023-05-16T14:45:36.012Z,93.32
2023-05-16T14:50:38.202Z,144.80
2023-05-16T14:53:07.956Z,159.82
2023-05-16T14:55:37.757Z,162.02
2023-05-16T14:58:08.474Z,166.30
2023-05-16T15:00:38.614Z,157.30
2023-05-16T15:03:08.341Z,154.88
2023-05-16T15:05:38.176Z,154.43
2023-05-16T15:08:07.969Z,163.88
2023-05-16T15:10:37.772Z,148.63
2023-05-16T15:13:08.489Z,126.07
2023-05-16T15:15:40.328Z,104.72
2023-05-16T15:18:11.410Z,87.97
2023-05-16T15:20:41.227Z,82.18
2023-05-16T15:23:11.188Z,83.95
2023-05-16T15:28:09.958Z,86.00
2023-05-16T15:30:39.670Z,91.22
2023-05-16T15:33:09.533Z,90.32
2023-05-16T15:38:10.323Z,78.45
2023-05-16T15:40:40.083Z,77.97
2023-05-16T15:43:09.792Z,75.00
2023-05-16T15:45:40.532Z,86.43
2023-05-16T15:48:10.470Z,86.32
2023-05-16T15:50:40.373Z,90.32
2023-05-16T15:53:10.162Z,78.63
2023-05-16T15:55:39.934Z,75.45
2023-05-16T15:58:10.703Z,78.63
2023-05-16T16:00:42.851Z,74.75
2023-05-16T16:03:12.999Z,81.55
2023-05-16T16:05:42.937Z,73.45
2023-05-16T16:08:12.938Z,79.10
2023-05-16T16:13:15.476Z,85.32
2023-05-16T16:15:45.583Z,71.47
2023-05-16T16:18:18.598Z,70.10
2023-05-16T16:20:52.125Z,72.20
2023-05-16T16:23:22.511Z,77.43
2023-05-16T16:25:53.232Z,72.50
2023-05-16T16:28:23.706Z,70.68
2023-05-16T16:30:53.636Z,82.05
2023-05-16T16:35:53.833Z,71.90
2023-05-16T16:38:24.481Z,69.43
2023-05-16T16:40:54.181Z,69.95
2023-05-16T16:43:24.528Z,72.30
2023-05-16T16:45:54.240Z,65.03
2023-05-16T16:48:24.025Z,75.30
2023-05-16T16:50:54.031Z,86.80
2023-05-16T16:55:53.531Z,70.25
2023-05-16T16:58:23.245Z,61.30
2023-05-16T17:00:53.030Z,64.20
2023-05-16T17:03:24.702Z,63.55
2023-05-16T17:05:55.938Z,63.35
2023-05-16T17:08:25.795Z,72.90
2023-05-16T17:10:55.690Z,74.10
2023-05-16T17:15:57.868Z,71.45
2023-05-16T17:20:57.570Z,80.20
2023-05-16T17:23:27.252Z,82.22
2023-05-16T17:25:57.031Z,98.03
2023-05-16T17:28:27.637Z,86.95
2023-05-16T17:30:57.617Z,90.93
2023-05-16T17:35:57.074Z,91.50
2023-05-16T17:38:26.772Z,110.00
2023-05-16T17:40:56.367Z,100.07
2023-05-16T17:43:30.467Z,102.85
2023-05-16T17:46:04.145Z,114.70
2023-05-16T17:48:34.316Z,121.43
2023-05-16T17:51:04.328Z,121.00
2023-05-16T17:56:03.054Z,115.75
2023-05-16T17:58:32.708Z,105.45
2023-05-16T18:01:02.397Z,125.50
2023-05-16T18:03:32.148Z,115.03
2023-05-16T18:06:02.600Z,110.57
2023-05-16T18:08:32.264Z,119.53
2023-05-16T18:11:02.596Z,123.55
2023-05-16T18:13:32.738Z,108.28
2023-05-16T18:16:02.451Z,109.72
2023-05-16T18:18:32.222Z,114.40
2023-05-16T18:21:01.873Z,115.95
2023-05-16T18:23:36.065Z,118.72
2023-05-16T18:26:05.968Z,140.30
2023-05-16T18:31:06.549Z,119.25
2023-05-16T18:33:36.295Z,117.32
2023-05-16T18:36:06.253Z,116.35
2023-05-16T18:41:05.193Z,127.43
2023-05-16T18:43:38.379Z,119.75
2023-05-16T18:46:08.015Z,123.13
2023-05-16T18:48:37.895Z,112.20
2023-05-16T18:51:07.843Z,114.78
2023-05-16T18:56:07.470Z,110.20
2023-05-16T19:01:06.816Z,118.95
2023-05-16T19:03:36.766Z,120.43
2023-05-16T19:08:47.088Z,131.00
2023-05-16T19:11:17.632Z,143.90
2023-05-16T19:16:16.746Z,147.73
2023-05-16T19:18:46.698Z,167.57
2023-05-16T19:23:47.784Z,139.32
2023-05-16T19:26:18.138Z,135.55
2023-05-16T19:28:47.783Z,117.50
2023-05-16T19:31:17.497Z,118.72
2023-05-16T19:33:47.213Z,134.98
2023-05-16T19:36:16.816Z,153.80
2023-05-16T19:38:46.547Z,154.32
2023-05-16T19:41:16.340Z,185.00
2023-05-16T19:43:46.056Z,172.70
2023-05-16T19:46:15.765Z,154.50
2023-05-16T19:48:45.525Z,171.85
2023-05-16T19:51:16.596Z,179.02
2023-05-16T19:53:48.497Z,162.68
2023-05-16T19:56:18.282Z,165.05
2023-05-16T19:58:49.165Z,179.07
2023-05-16T20:01:18.841Z,180.88
2023-05-16T20:03:48.644Z,151.02
2023-05-16T20:06:18.481Z,155.25
2023-05-16T20:08:48.136Z,129.20
2023-05-16T20:11:17.901Z,131.32
2023-05-16T20:13:47.729Z,132.77
2023-05-16T20:16:17.573Z,132.82
2023-05-16T20:18:48.375Z,133.30
2023-05-16T20:21:18.099Z,145.27
2023-05-16T20:23:47.792Z,133.15
2023-05-16T20:26:17.621Z,142.20
2023-05-16T20:28:47.366Z,127.63
2023-05-16T20:31:17.069Z,109.90
2023-05-16T20:33:48.333Z,109.68
2023-05-16T20:36:18.151Z,112.13
2023-05-16T20:38:47.993Z,107.45
2023-05-16T20:41:17.633Z,110.45
2023-05-16T20:43:48.432Z,107.40
2023-05-16T20:46:18.342Z,102.40
2023-05-16T20:48:48.106Z,101.57
2023-05-16T20:51:17.739Z,100.28
2023-05-16T20:53:47.481Z,104.80
2023-05-16T20:56:17.191Z,109.97
2023-05-16T20:58:46.873Z,107.18
2023-05-16T21:01:16.537Z,107.25
2023-05-16T21:03:46.186Z,107.80
2023-05-16T21:06:15.826Z,108.03
2023-05-16T21:08:45.469Z,105.20
2023-05-16T21:11:15.131Z,112.50
2023-05-16T21:13:45.440Z,115.68
2023-05-16T21:16:15.070Z,107.60
2023-05-16T21:18:44.944Z,109.50
2023-05-16T21:21:14.720Z,110.65
2023-05-16T21:23:44.539Z,106.60
2023-05-16T21:26:14.228Z,116.05
2023-05-16T21:28:54.346Z,104.30
2023-05-16T21:31:24.943Z,116.00
2023-05-16T21:33:54.751Z,114.22
2023-05-16T21:36:24.564Z,117.32
2023-05-16T21:38:54.201Z,102.53
2023-05-16T21:41:24.788Z,120.68
2023-05-16T21:43:54.380Z,120.32
2023-05-16T21:46:24.087Z,116.32
2023-05-16T21:48:53.806Z,112.35
2023-05-16T21:51:23.503Z,127.30
2023-05-16T21:53:53.120Z,118.47
2023-05-16T21:56:22.889Z,125.20
2023-05-16T21:58:52.538Z,135.73
2023-05-16T22:01:26.620Z,137.30
2023-05-16T22:03:56.371Z,131.20
2023-05-16T22:06:26.557Z,124.55
2023-05-16T22:11:26.172Z,121.78
2023-05-16T22:13:55.874Z,116.75
2023-05-16T22:16:25.642Z,119.13
2023-05-16T22:18:55.401Z,120.72
2023-05-16T22:21:25.205Z,127.55
2023-05-16T22:23:54.852Z,126.60
2023-05-16T22:26:24.610Z,115.65
2023-05-16T22:28:54.367Z,123.93
2023-05-16T22:31:24.155Z,120.13
2023-05-16T22:33:53.805Z,116.28
2023-05-16T22:36:23.494Z,107.47
2023-05-16T22:38:53.129Z,108.70
2023-05-16T22:41:22.942Z,113.03
2023-05-16T22:43:52.575Z,99.57
2023-05-16T22:46:22.280Z,108.50
2023-05-16T22:48:51.922Z,106.55
2023-05-16T22:51:21.582Z,113.57
2023-05-16T22:53:51.554Z,122.72
2023-05-16T22:56:21.281Z,121.10
2023-05-16T22:58:50.963Z,118.25
2023-05-16T23:01:20.648Z,117.07
2023-05-16T23:03:50.419Z,126.47
2023-05-16T23:06:20.307Z,116.85
2023-05-16T23:08:49.911Z,130.95
2023-05-16T23:11:21.363Z,120.35
2023-05-16T23:13:51.086Z,112.07
2023-05-16T23:16:20.741Z,121.63
2023-05-16T23:18:50.661Z,116.00
2023-05-16T23:23:49.827Z,104.43
2023-05-16T23:26:19.549Z,118.38
2023-05-16T23:28:49.196Z,114.88
2023-05-16T23:31:18.945Z,108.95
2023-05-16T23:33:48.699Z,113.55
2023-05-16T23:36:18.426Z,107.93
2023-05-16T23:38:48.095Z,113.15
2023-05-16T23:41:17.818Z,97.82
2023-05-16T23:43:47.469Z,88.53
2023-05-16T23:46:17.175Z,96.38
2023-05-16T23:48:47.657Z,100.35
2023-05-16T23:51:17.381Z,97.00
2023-05-16T23:53:47.194Z,100.93
2023-05-16T23:56:17.290Z,101.75
